sensor_id;sensor_type;location;lat;lon;timestamp;P1;durP1;ratioP1;P2;durP2;ratioP2
53245;SDS011;39569;51.090;-1.786;2023-12-14T00:01:35;0.40;;;0.40;;
53245;SDS011;39569;51.090;-1.786;2023-12-14T00:04:01;0.30;;;0.30;;
53245;SDS011;39569;51.090;-1.786;2023-12-14T00:06:31;0.43;;;0.43;;
53245;SDS011;39569;51.090;-1.786;2023-12-14T00:08:58;0.40;;;0.40;;
53245;SDS011;39569;51.090;-1.786;2023-12-14T00:11:24;0.40;;;0.40;;
53245;SDS011;39569;51.090;-1.786;2023-12-14T00:13:51;0.68;;;0.68;;
53245;SDS011;39569;51.090;-1.786;2023-12-14T00:16:18;0.45;;;0.45;;
53245;SDS011;39569;51.090;-1.786;2023-12-14T00:18:44;0.40;;;0.40;;
53245;SDS011;39569;51.090;-1.786;2023-12-14T00:21:11;0.20;;;0.20;;
53245;SDS011;39569;51.090;-1.786;2023-12-14T00:23:39;1.35;;;1.30;;
53245;SDS011;39569;51.090;-1.786;2023-12-14T00:26:06;1.23;;;1.23;;
53245;SDS011;39569;51.090;-1.786;2023-12-14T00:28:33;0.40;;;0.40;;
53245;SDS011;39569;51.090;-1.786;2023-12-14T00:30:59;0.43;;;0.43;;
53245;SDS011;39569;51.090;-1.786;2023-12-14T00:33:26;1.67;;;1.55;;
53245;SDS011;39569;51.090;-1.786;2023-12-14T00:35:53;0.25;;;0.25;;
53245;SDS011;39569;51.090;-1.786;2023-12-14T00:38:19;0.30;;;0.30;;
53245;SDS011;39569;51.090;-1.786;2023-12-14T00:40:47;0.38;;;0.38;;
53245;SDS011;39569;51.090;-1.786;2023-12-14T00:43:14;0.50;;;0.50;;
53245;SDS011;39569;51.090;-1.786;2023-12-14T00:45:41;0.45;;;0.45;;
53245;SDS011;39569;51.090;-1.786;2023-12-14T00:48:08;0.88;;;0.88;;
53245;SDS011;39569;51.090;-1.786;2023-12-14T00:50:35;0.40;;;0.40;;
53245;SDS011;39569;51.090;-1.786;2023-12-14T00:53:01;0.40;;;0.40;;
53245;SDS011;39569;51.090;-1.786;2023-12-14T00:55:28;0.50;;;0.50;;
53245;SDS011;39569;51.090;-1.786;2023-12-14T00:57:56;0.47;;;0.47;;
53245;SDS011;39569;51.090;-1.786;2023-12-14T01:00:23;0.50;;;0.50;;
53245;SDS011;39569;51.090;-1.786;2023-12-14T01:02:50;1.17;;;1.15;;
53245;SDS011;39569;51.090;-1.786;2023-12-14T01:05:16;0.57;;;0.57;;
53245;SDS011;39569;51.090;-1.786;2023-12-14T01:07:43;0.30;;;0.30;;
53245;SDS011;39569;51.090;-1.786;2023-12-14T01:10:10;0.47;;;0.47;;
53245;SDS011;39569;51.090;-1.786;2023-12-14T01:12:37;0.63;;;0.63;;
53245;SDS011;39569;51.090;-1.786;2023-12-14T01:15:05;0.50;;;0.50;;
53245;SDS011;39569;51.090;-1.786;2023-12-14T01:17:33;0.40;;;0.40;;
53245;SDS011;39569;51.090;-1.786;2023-12-14T01:20:02;0.40;;;0.40;;
53245;SDS011;39569;51.090;-1.786;2023-12-14T01:22:31;1.95;;;1.85;;
53245;SDS011;39569;51.090;-1.786;2023-12-14T01:24:57;2.35;;;2.25;;
53245;SDS011;39569;51.090;-1.786;2023-12-14T01:27:24;1.00;;;1.00;;
53245;SDS011;39569;51.090;-1.786;2023-12-14T01:29:51;0.32;;;0.32;;
53245;SDS011;39569;51.090;-1.786;2023-12-14T01:32:19;0.80;;;0.80;;
53245;SDS011;39569;51.090;-1.786;2023-12-14T01:34:46;1.40;;;1.30;;
53245;SDS011;39569;51.090;-1.786;2023-12-14T01:37:12;0.38;;;0.38;;
53245;SDS011;39569;51.090;-1.786;2023-12-14T01:39:39;0.38;;;0.38;;
53245;SDS011;39569;51.090;-1.786;2023-12-14T01:42:06;0.43;;;0.43;;
53245;SDS011;39569;51.090;-1.786;2023-12-14T01:44:33;0.52;;;0.52;;
53245;SDS011;39569;51.090;-1.786;2023-12-14T01:47:00;1.15;;;1.15;;
53245;SDS011;39569;51.090;-1.786;2023-12-14T01:49:28;1.25;;;1.15;;
53245;SDS011;39569;51.090;-1.786;2023-12-14T01:51:54;1.25;;;1.25;;
53245;SDS011;39569;51.090;-1.786;2023-12-14T01:54:21;1.48;;;1.38;;
53245;SDS011;39569;51.090;-1.786;2023-12-14T01:56:48;0.68;;;0.68;;
53245;SDS011;39569;51.090;-1.786;2023-12-14T01:59:14;0.40;;;0.40;;
53245;SDS011;39569;51.090;-1.786;2023-12-14T02:01:42;0.60;;;0.60;;
53245;SDS011;39569;51.090;-1.786;2023-12-14T02:04:10;0.82;;;0.82;;
53245;SDS011;39569;51.090;-1.786;2023-12-14T02:06:38;0.75;;;0.75;;
53245;SDS011;39569;51.090;-1.786;2023-12-14T02:09:05;0.30;;;0.30;;
53245;SDS011;39569;51.090;-1.786;2023-12-14T02:11:32;0.50;;;0.50;;
53245;SDS011;39569;51.090;-1.786;2023-12-14T02:14:02;0.55;;;0.55;;
53245;SDS011;39569;51.090;-1.786;2023-12-14T02:16:30;0.40;;;0.40;;
53245;SDS011;39569;51.090;-1.786;2023-12-14T02:18:57;2.63;;;1.65;;
53245;SDS011;39569;51.090;-1.786;2023-12-14T02:21:24;0.40;;;0.40;;
53245;SDS011;39569;51.090;-1.786;2023-12-14T02:23:52;0.73;;;0.73;;
53245;SDS011;39569;51.090;-1.786;2023-12-14T02:26:19;2.38;;;0.82;;
53245;SDS011;39569;51.090;-1.786;2023-12-14T02:28:45;0.68;;;0.68;;
53245;SDS011;39569;51.090;-1.786;2023-12-14T02:31:12;0.40;;;0.40;;
53245;SDS011;39569;51.090;-1.786;2023-12-14T02:33:39;0.45;;;0.45;;
53245;SDS011;39569;51.090;-1.786;2023-12-14T02:36:06;0.20;;;0.20;;
53245;SDS011;39569;51.090;-1.786;2023-12-14T02:38:33;0.70;;;0.70;;
53245;SDS011;39569;51.090;-1.786;2023-12-14T02:41:01;1.75;;;1.65;;
53245;SDS011;39569;51.090;-1.786;2023-12-14T02:43:28;0.40;;;0.40;;
53245;SDS011;39569;51.090;-1.786;2023-12-14T02:45:55;0.70;;;0.70;;
53245;SDS011;39569;51.090;-1.786;2023-12-14T02:48:26;0.52;;;0.52;;
53245;SDS011;39569;51.090;-1.786;2023-12-14T02:50:53;0.40;;;0.40;;
53245;SDS011;39569;51.090;-1.786;2023-12-14T02:53:20;1.23;;;1.23;;
53245;SDS011;39569;51.090;-1.786;2023-12-14T02:55:47;0.30;;;0.30;;
53245;SDS011;39569;51.090;-1.786;2023-12-14T02:58:15;0.50;;;0.50;;
53245;SDS011;39569;51.090;-1.786;2023-12-14T03:00:42;0.30;;;0.30;;
53245;SDS011;39569;51.090;-1.786;2023-12-14T03:03:08;0.38;;;0.38;;
53245;SDS011;39569;51.090;-1.786;2023-12-14T03:05:35;2.50;;;2.30;;
53245;SDS011;39569;51.090;-1.786;2023-12-14T03:08:02;2.08;;;1.98;;
53245;SDS011;39569;51.090;-1.786;2023-12-14T03:10:29;0.93;;;0.93;;
53245;SDS011;39569;51.090;-1.786;2023-12-14T03:12:56;0.47;;;0.47;;
53245;SDS011;39569;51.090;-1.786;2023-12-14T03:15:24;0.40;;;0.40;;
53245;SDS011;39569;51.090;-1.786;2023-12-14T03:17:50;0.32;;;0.32;;
53245;SDS011;39569;51.090;-1.786;2023-12-14T03:20:17;1.85;;;1.75;;
53245;SDS011;39569;51.090;-1.786;2023-12-14T03:22:44;0.52;;;0.52;;
53245;SDS011;39569;51.090;-1.786;2023-12-14T03:25:11;0.30;;;0.30;;
53245;SDS011;39569;51.090;-1.786;2023-12-14T03:27:39;0.47;;;0.47;;
53245;SDS011;39569;51.090;-1.786;2023-12-14T03:30:06;0.70;;;0.70;;
53245;SDS011;39569;51.090;-1.786;2023-12-14T03:32:36;0.50;;;0.50;;
53245;SDS011;39569;51.090;-1.786;2023-12-14T03:35:03;1.10;;;1.10;;
53245;SDS011;39569;51.090;-1.786;2023-12-14T03:37:31;0.40;;;0.40;;
53245;SDS011;39569;51.090;-1.786;2023-12-14T03:39:58;1.00;;;1.00;;
53245;SDS011;39569;51.090;-1.786;2023-12-14T03:42:25;0.38;;;0.38;;
53245;SDS011;39569;51.090;-1.786;2023-12-14T03:44:51;0.38;;;0.38;;
53245;SDS011;39569;51.090;-1.786;2023-12-14T03:47:18;0.40;;;0.40;;
53245;SDS011;39569;51.090;-1.786;2023-12-14T03:49:46;2.67;;;2.58;;
53245;SDS011;39569;51.090;-1.786;2023-12-14T03:52:14;0.30;;;0.30;;
53245;SDS011;39569;51.090;-1.786;2023-12-14T03:54:41;1.95;;;1.83;;
53245;SDS011;39569;51.090;-1.786;2023-12-14T03:57:08;1.67;;;1.58;;
53245;SDS011;39569;51.090;-1.786;2023-12-14T03:59:38;0.32;;;0.32;;
53245;SDS011;39569;51.090;-1.786;2023-12-14T04:02:05;0.30;;;0.30;;
53245;SDS011;39569;51.090;-1.786;2023-12-14T04:04:32;0.43;;;0.43;;
53245;SDS011;39569;51.090;-1.786;2023-12-14T04:07:00;0.93;;;0.93;;
53245;SDS011;39569;51.090;-1.786;2023-12-14T04:09:27;1.58;;;1.40;;
53245;SDS011;39569;51.090;-1.786;2023-12-14T04:11:53;0.55;;;0.55;;
53245;SDS011;39569;51.090;-1.786;2023-12-14T04:14:20;0.20;;;0.20;;
53245;SDS011;39569;51.090;-1.786;2023-12-14T04:16:47;0.30;;;0.30;;
53245;SDS011;39569;51.090;-1.786;2023-12-14T04:19:13;0.40;;;0.40;;
53245;SDS011;39569;51.090;-1.786;2023-12-14T04:21:40;0.75;;;0.75;;
53245;SDS011;39569;51.090;-1.786;2023-12-14T04:24:08;0.40;;;0.40;;
53245;SDS011;39569;51.090;-1.786;2023-12-14T04:26:37;0.40;;;0.40;;
53245;SDS011;39569;51.090;-1.786;2023-12-14T04:29:05;0.50;;;0.50;;
53245;SDS011;39569;51.090;-1.786;2023-12-14T04:31:32;1.20;;;1.20;;
53245;SDS011;39569;51.090;-1.786;2023-12-14T04:34:00;0.40;;;0.40;;
53245;SDS011;39569;51.090;-1.786;2023-12-14T04:36:26;0.85;;;0.85;;
53245;SDS011;39569;51.090;-1.786;2023-12-14T04:38:53;0.65;;;0.65;;
53245;SDS011;39569;51.090;-1.786;2023-12-14T04:41:21;0.60;;;0.60;;
53245;SDS011;39569;51.090;-1.786;2023-12-14T04:43:48;1.45;;;1.35;;
53245;SDS011;39569;51.090;-1.786;2023-12-14T04:46:15;3.22;;;1.27;;
53245;SDS011;39569;51.090;-1.786;2023-12-14T04:48:41;1.10;;;1.10;;
53245;SDS011;39569;51.090;-1.786;2023-12-14T04:51:10;0.30;;;0.30;;
53245;SDS011;39569;51.090;-1.786;2023-12-14T04:53:38;0.40;;;0.40;;
53245;SDS011;39569;51.090;-1.786;2023-12-14T04:56:05;0.30;;;0.30;;
53245;SDS011;39569;51.090;-1.786;2023-12-14T04:58:37;0.60;;;0.60;;
53245;SDS011;39569;51.090;-1.786;2023-12-14T05:01:03;0.55;;;0.55;;
53245;SDS011;39569;51.090;-1.786;2023-12-14T05:03:30;0.63;;;0.63;;
53245;SDS011;39569;51.090;-1.786;2023-12-14T05:05:57;0.40;;;0.40;;
53245;SDS011;39569;51.090;-1.786;2023-12-14T05:08:24;0.30;;;0.30;;
53245;SDS011;39569;51.090;-1.786;2023-12-14T05:10:50;0.60;;;0.60;;
53245;SDS011;39569;51.090;-1.786;2023-12-14T05:13:17;0.40;;;0.40;;
53245;SDS011;39569;51.090;-1.786;2023-12-14T05:15:45;0.57;;;0.57;;
53245;SDS011;39569;51.090;-1.786;2023-12-14T05:18:12;0.77;;;0.77;;
53245;SDS011;39569;51.090;-1.786;2023-12-14T05:20:38;0.65;;;0.65;;
53245;SDS011;39569;51.090;-1.786;2023-12-14T05:23:05;0.30;;;0.30;;
53245;SDS011;39569;51.090;-1.786;2023-12-14T05:25:32;0.88;;;0.88;;
53245;SDS011;39569;51.090;-1.786;2023-12-14T05:27:59;0.52;;;0.52;;
53245;SDS011;39569;51.090;-1.786;2023-12-14T05:30:25;0.40;;;0.40;;
53245;SDS011;39569;51.090;-1.786;2023-12-14T05:32:53;0.73;;;0.73;;
53245;SDS011;39569;51.090;-1.786;2023-12-14T05:35:20;0.77;;;0.77;;
53245;SDS011;39569;51.090;-1.786;2023-12-14T05:37:47;0.85;;;0.85;;
53245;SDS011;39569;51.090;-1.786;2023-12-14T05:40:14;0.80;;;0.80;;
53245;SDS011;39569;51.090;-1.786;2023-12-14T05:42:41;1.02;;;1.02;;
53245;SDS011;39569;51.090;-1.786;2023-12-14T05:45:08;0.68;;;0.68;;
53245;SDS011;39569;51.090;-1.786;2023-12-14T05:47:36;0.85;;;0.85;;
53245;SDS011;39569;51.090;-1.786;2023-12-14T05:50:05;0.93;;;0.93;;
53245;SDS011;39569;51.090;-1.786;2023-12-14T05:52:34;0.70;;;0.70;;
53245;SDS011;39569;51.090;-1.786;2023-12-14T05:55:01;1.65;;;1.60;;
53245;SDS011;39569;51.090;-1.786;2023-12-14T05:57:27;0.95;;;0.95;;
53245;SDS011;39569;51.090;-1.786;2023-12-14T05:59:54;0.60;;;0.60;;
53245;SDS011;39569;51.090;-1.786;2023-12-14T06:02:22;0.68;;;0.68;;
53245;SDS011;39569;51.090;-1.786;2023-12-14T06:04:48;2.33;;;2.10;;
53245;SDS011;39569;51.090;-1.786;2023-12-14T06:07:17;0.47;;;0.47;;
53245;SDS011;39569;51.090;-1.786;2023-12-14T06:09:44;1.17;;;1.10;;
53245;SDS011;39569;51.090;-1.786;2023-12-14T06:12:10;1.73;;;1.63;;
53245;SDS011;39569;51.090;-1.786;2023-12-14T06:14:38;3.00;;;0.85;;
53245;SDS011;39569;51.090;-1.786;2023-12-14T06:17:05;3.58;;;3.38;;
53245;SDS011;39569;51.090;-1.786;2023-12-14T06:19:31;1.25;;;1.15;;
53245;SDS011;39569;51.090;-1.786;2023-12-14T06:21:58;0.70;;;0.70;;
53245;SDS011;39569;51.090;-1.786;2023-12-14T06:24:26;0.40;;;0.40;;
53245;SDS011;39569;51.090;-1.786;2023-12-14T06:26:53;0.55;;;0.55;;
53245;SDS011;39569;51.090;-1.786;2023-12-14T06:29:20;1.08;;;1.08;;
53245;SDS011;39569;51.090;-1.786;2023-12-14T06:31:46;0.73;;;0.73;;
53245;SDS011;39569;51.090;-1.786;2023-12-14T06:34:13;0.70;;;0.70;;
53245;SDS011;39569;51.090;-1.786;2023-12-14T06:36:41;0.52;;;0.52;;
53245;SDS011;39569;51.090;-1.786;2023-12-14T06:39:09;0.60;;;0.60;;
53245;SDS011;39569;51.090;-1.786;2023-12-14T06:41:37;0.75;;;0.75;;
53245;SDS011;39569;51.090;-1.786;2023-12-14T06:44:05;2.85;;;2.45;;
53245;SDS011;39569;51.090;-1.786;2023-12-14T06:46:34;0.38;;;0.38;;
53245;SDS011;39569;51.090;-1.786;2023-12-14T06:49:01;0.68;;;0.68;;
53245;SDS011;39569;51.090;-1.786;2023-12-14T06:51:27;1.30;;;1.27;;
53245;SDS011;39569;51.090;-1.786;2023-12-14T06:53:54;0.50;;;0.50;;
53245;SDS011;39569;51.090;-1.786;2023-12-14T06:56:21;0.88;;;0.88;;
53245;SDS011;39569;51.090;-1.786;2023-12-14T06:58:49;1.20;;;1.05;;
53245;SDS011;39569;51.090;-1.786;2023-12-14T07:01:16;1.48;;;1.48;;
53245;SDS011;39569;51.090;-1.786;2023-12-14T07:03:43;0.50;;;0.50;;
53245;SDS011;39569;51.090;-1.786;2023-12-14T07:06:11;4.32;;;3.92;;
53245;SDS011;39569;51.090;-1.786;2023-12-14T07:08:39;0.73;;;0.73;;
53245;SDS011;39569;51.090;-1.786;2023-12-14T07:11:06;0.22;;;0.22;;
53245;SDS011;39569;51.090;-1.786;2023-12-14T07:13:33;3.22;;;1.23;;
53245;SDS011;39569;51.090;-1.786;2023-12-14T07:16:03;0.82;;;0.82;;
53245;SDS011;39569;51.090;-1.786;2023-12-14T07:18:31;0.30;;;0.30;;
53245;SDS011;39569;51.090;-1.786;2023-12-14T07:20:57;0.98;;;0.98;;
53245;SDS011;39569;51.090;-1.786;2023-12-14T07:23:24;1.85;;;1.38;;
53245;SDS011;39569;51.090;-1.786;2023-12-14T07:25:52;0.30;;;0.30;;
53245;SDS011;39569;51.090;-1.786;2023-12-14T07:28:18;0.30;;;0.30;;
53245;SDS011;39569;51.090;-1.786;2023-12-14T07:30:45;0.75;;;0.75;;
53245;SDS011;39569;51.090;-1.786;2023-12-14T07:33:14;4.30;;;1.30;;
53245;SDS011;39569;51.090;-1.786;2023-12-14T07:35:41;0.47;;;0.47;;
53245;SDS011;39569;51.090;-1.786;2023-12-14T07:38:07;0.25;;;0.25;;
53245;SDS011;39569;51.090;-1.786;2023-12-14T07:40:34;0.30;;;0.30;;
53245;SDS011;39569;51.090;-1.786;2023-12-14T07:43:01;1.00;;;1.00;;
53245;SDS011;39569;51.090;-1.786;2023-12-14T07:45:28;0.95;;;0.95;;
53245;SDS011;39569;51.090;-1.786;2023-12-14T07:47:54;0.93;;;0.65;;
53245;SDS011;39569;51.090;-1.786;2023-12-14T07:50:22;0.40;;;0.40;;
53245;SDS011;39569;51.090;-1.786;2023-12-14T07:52:49;0.40;;;0.40;;
53245;SDS011;39569;51.090;-1.786;2023-12-14T07:55:16;1.05;;;1.00;;
53245;SDS011;39569;51.090;-1.786;2023-12-14T07:57:43;0.65;;;0.65;;
53245;SDS011;39569;51.090;-1.786;2023-12-14T08:00:11;1.88;;;1.20;;
53245;SDS011;39569;51.090;-1.786;2023-12-14T08:02:38;0.80;;;0.80;;
53245;SDS011;39569;51.090;-1.786;2023-12-14T08:05:05;0.30;;;0.30;;
53245;SDS011;39569;51.090;-1.786;2023-12-14T08:07:33;0.30;;;0.30;;
53245;SDS011;39569;51.090;-1.786;2023-12-14T08:10:00;0.50;;;0.50;;
53245;SDS011;39569;51.090;-1.786;2023-12-14T08:12:27;2.33;;;1.30;;
53245;SDS011;39569;51.090;-1.786;2023-12-14T08:14:53;0.45;;;0.45;;
53245;SDS011;39569;51.090;-1.786;2023-12-14T08:17:20;0.82;;;0.82;;
53245;SDS011;39569;51.090;-1.786;2023-12-14T08:19:47;0.77;;;0.77;;
53245;SDS011;39569;51.090;-1.786;2023-12-14T08:22:14;1.65;;;1.58;;
53245;SDS011;39569;51.090;-1.786;2023-12-14T08:24:42;0.50;;;0.50;;
53245;SDS011;39569;51.090;-1.786;2023-12-14T08:27:08;0.47;;;0.47;;
53245;SDS011;39569;51.090;-1.786;2023-12-14T08:29:35;0.30;;;0.30;;
53245;SDS011;39569;51.090;-1.786;2023-12-14T08:32:02;0.65;;;0.65;;
53245;SDS011;39569;51.090;-1.786;2023-12-14T08:34:29;0.30;;;0.30;;
53245;SDS011;39569;51.090;-1.786;2023-12-14T08:36:56;1.33;;;1.23;;
53245;SDS011;39569;51.090;-1.786;2023-12-14T08:39:22;2.22;;;2.13;;
53245;SDS011;39569;51.090;-1.786;2023-12-14T08:41:51;1.00;;;1.00;;
53245;SDS011;39569;51.090;-1.786;2023-12-14T08:44:18;0.57;;;0.57;;
53245;SDS011;39569;51.090;-1.786;2023-12-14T08:46:45;1.50;;;1.45;;
53245;SDS011;39569;51.090;-1.786;2023-12-14T08:49:13;1.10;;;1.08;;
53245;SDS011;39569;51.090;-1.786;2023-12-14T08:51:40;1.88;;;1.40;;
53245;SDS011;39569;51.090;-1.786;2023-12-14T08:54:07;1.20;;;1.20;;
53245;SDS011;39569;51.090;-1.786;2023-12-14T08:56:34;0.73;;;0.73;;
53245;SDS011;39569;51.090;-1.786;2023-12-14T08:59:02;1.27;;;1.27;;
53245;SDS011;39569;51.090;-1.786;2023-12-14T09:01:29;2.50;;;2.28;;
53245;SDS011;39569;51.090;-1.786;2023-12-14T09:03:56;3.00;;;2.75;;
53245;SDS011;39569;51.090;-1.786;2023-12-14T09:06:23;0.40;;;0.40;;
53245;SDS011;39569;51.090;-1.786;2023-12-14T09:08:49;0.50;;;0.50;;
53245;SDS011;39569;51.090;-1.786;2023-12-14T09:11:16;0.30;;;0.30;;
53245;SDS011;39569;51.090;-1.786;2023-12-14T09:13:44;5.40;;;2.80;;
53245;SDS011;39569;51.090;-1.786;2023-12-14T09:16:12;1.00;;;1.00;;
53245;SDS011;39569;51.090;-1.786;2023-12-14T09:18:38;0.52;;;0.52;;
53245;SDS011;39569;51.090;-1.786;2023-12-14T09:21:05;0.55;;;0.55;;
53245;SDS011;39569;51.090;-1.786;2023-12-14T09:23:32;0.70;;;0.70;;
53245;SDS011;39569;51.090;-1.786;2023-12-14T09:25:59;0.65;;;0.65;;
53245;SDS011;39569;51.090;-1.786;2023-12-14T09:28:25;0.45;;;0.45;;
53245;SDS011;39569;51.090;-1.786;2023-12-14T09:30:52;1.48;;;0.95;;
53245;SDS011;39569;51.090;-1.786;2023-12-14T09:33:20;0.50;;;0.50;;
53245;SDS011;39569;51.090;-1.786;2023-12-14T09:35:47;0.45;;;0.45;;
53245;SDS011;39569;51.090;-1.786;2023-12-14T09:38:14;0.32;;;0.32;;
53245;SDS011;39569;51.090;-1.786;2023-12-14T09:40:42;0.40;;;0.40;;
53245;SDS011;39569;51.090;-1.786;2023-12-14T09:43:10;0.35;;;0.35;;
53245;SDS011;39569;51.090;-1.786;2023-12-14T09:45:37;0.80;;;0.80;;
53245;SDS011;39569;51.090;-1.786;2023-12-14T09:48:10;0.40;;;0.40;;
53245;SDS011;39569;51.090;-1.786;2023-12-14T09:50:40;1.02;;;0.90;;
53245;SDS011;39569;51.090;-1.786;2023-12-14T09:53:07;0.20;;;0.20;;
53245;SDS011;39569;51.090;-1.786;2023-12-14T09:55:34;3.00;;;1.50;;
53245;SDS011;39569;51.090;-1.786;2023-12-14T09:58:00;0.63;;;0.63;;
53245;SDS011;39569;51.090;-1.786;2023-12-14T10:00:34;0.40;;;0.40;;
53245;SDS011;39569;51.090;-1.786;2023-12-14T10:03:21;1.38;;;1.33;;
53245;SDS011;39569;51.090;-1.786;2023-12-14T10:08:17;0.60;;;0.60;;
53245;SDS011;39569;51.090;-1.786;2023-12-14T10:10:44;1.27;;;1.17;;
53245;SDS011;39569;51.090;-1.786;2023-12-14T10:13:14;0.73;;;0.73;;
53245;SDS011;39569;51.090;-1.786;2023-12-14T10:15:41;0.90;;;0.90;;
53245;SDS011;39569;51.090;-1.786;2023-12-14T10:18:08;1.00;;;1.00;;
53245;SDS011;39569;51.090;-1.786;2023-12-14T10:20:35;1.00;;;0.82;;
53245;SDS011;39569;51.090;-1.786;2023-12-14T10:23:04;0.30;;;0.30;;
53245;SDS011;39569;51.090;-1.786;2023-12-14T10:25:32;1.55;;;0.95;;
53245;SDS011;39569;51.090;-1.786;2023-12-14T10:27:58;3.00;;;1.02;;
53245;SDS011;39569;51.090;-1.786;2023-12-14T10:30:27;0.80;;;0.80;;
53245;SDS011;39569;51.090;-1.786;2023-12-14T10:32:55;2.13;;;2.03;;
53245;SDS011;39569;51.090;-1.786;2023-12-14T10:35:22;0.50;;;0.50;;
53245;SDS011;39569;51.090;-1.786;2023-12-14T10:37:50;0.30;;;0.30;;
53245;SDS011;39569;51.090;-1.786;2023-12-14T10:40:19;0.95;;;0.95;;
53245;SDS011;39569;51.090;-1.786;2023-12-14T10:42:46;0.55;;;0.55;;
53245;SDS011;39569;51.090;-1.786;2023-12-14T10:45:15;1.17;;;1.17;;
53245;SDS011;39569;51.090;-1.786;2023-12-14T10:47:43;0.60;;;0.60;;
53245;SDS011;39569;51.090;-1.786;2023-12-14T10:50:11;0.63;;;0.40;;
53245;SDS011;39569;51.090;-1.786;2023-12-14T10:52:38;1.25;;;1.13;;
53245;SDS011;39569;51.090;-1.786;2023-12-14T10:55:07;0.20;;;0.20;;
53245;SDS011;39569;51.090;-1.786;2023-12-14T10:57:38;1.35;;;1.33;;
53245;SDS011;39569;51.090;-1.786;2023-12-14T11:00:06;1.20;;;0.88;;
53245;SDS011;39569;51.090;-1.786;2023-12-14T11:02:39;2.17;;;2.00;;
53245;SDS011;39569;51.090;-1.786;2023-12-14T11:05:08;1.40;;;1.40;;
53245;SDS011;39569;51.090;-1.786;2023-12-14T11:07:44;1.38;;;1.38;;
53245;SDS011;39569;51.090;-1.786;2023-12-14T11:10:11;0.63;;;0.63;;
53245;SDS011;39569;51.090;-1.786;2023-12-14T11:15:27;0.93;;;0.93;;
53245;SDS011;39569;51.090;-1.786;2023-12-14T11:20:51;0.95;;;0.95;;
53245;SDS011;39569;51.090;-1.786;2023-12-14T11:26:05;2.05;;;1.95;;
53245;SDS011;39569;51.090;-1.786;2023-12-14T11:28:36;0.65;;;0.65;;
53245;SDS011;39569;51.090;-1.786;2023-12-14T11:31:08;0.43;;;0.43;;
53245;SDS011;39569;51.090;-1.786;2023-12-14T11:33:36;0.85;;;0.85;;
53245;SDS011;39569;51.090;-1.786;2023-12-14T11:36:04;3.13;;;2.05;;
53245;SDS011;39569;51.090;-1.786;2023-12-14T11:38:31;0.80;;;0.80;;
53245;SDS011;39569;51.090;-1.786;2023-12-14T11:40:58;0.30;;;0.30;;
53245;SDS011;39569;51.090;-1.786;2023-12-14T11:43:25;6.28;;;2.58;;
53245;SDS011;39569;51.090;-1.786;2023-12-14T11:45:54;2.60;;;2.40;;
53245;SDS011;39569;51.090;-1.786;2023-12-14T11:48:21;2.85;;;2.13;;
53245;SDS011;39569;51.090;-1.786;2023-12-14T11:50:48;1.02;;;1.02;;
53245;SDS011;39569;51.090;-1.786;2023-12-14T11:53:14;0.57;;;0.57;;
53245;SDS011;39569;51.090;-1.786;2023-12-14T11:55:42;0.30;;;0.30;;
53245;SDS011;39569;51.090;-1.786;2023-12-14T11:58:11;1.20;;;1.20;;
53245;SDS011;39569;51.090;-1.786;2023-12-14T12:00:39;2.92;;;2.83;;
53245;SDS011;39569;51.090;-1.786;2023-12-14T12:03:08;2.47;;;1.75;;
53245;SDS011;39569;51.090;-1.786;2023-12-14T12:05:36;10.45;;;7.60;;
53245;SDS011;39569;51.090;-1.786;2023-12-14T12:08:03;7.32;;;6.43;;
53245;SDS011;39569;51.090;-1.786;2023-12-14T12:10:30;6.07;;;5.35;;
53245;SDS011;39569;51.090;-1.786;2023-12-14T12:13:04;4.95;;;4.35;;
53245;SDS011;39569;51.090;-1.786;2023-12-14T12:15:33;4.75;;;4.35;;
53245;SDS011;39569;51.090;-1.786;2023-12-14T12:18:02;1.20;;;1.10;;
53245;SDS011;39569;51.090;-1.786;2023-12-14T12:20:31;0.40;;;0.40;;
53245;SDS011;39569;51.090;-1.786;2023-12-14T12:22:58;1.05;;;1.05;;
53245;SDS011;39569;51.090;-1.786;2023-12-14T12:25:25;1.80;;;1.70;;
53245;SDS011;39569;51.090;-1.786;2023-12-14T12:27:52;1.55;;;1.45;;
53245;SDS011;39569;51.090;-1.786;2023-12-14T12:30:20;2.25;;;2.15;;
53245;SDS011;39569;51.090;-1.786;2023-12-14T12:32:47;1.98;;;1.88;;
53245;SDS011;39569;51.090;-1.786;2023-12-14T12:35:15;2.28;;;2.17;;
53245;SDS011;39569;51.090;-1.786;2023-12-14T12:37:43;1.88;;;1.77;;
53245;SDS011;39569;51.090;-1.786;2023-12-14T12:40:10;1.90;;;1.80;;
53245;SDS011;39569;51.090;-1.786;2023-12-14T12:42:37;0.32;;;0.32;;
53245;SDS011;39569;51.090;-1.786;2023-12-14T12:45:04;1.30;;;1.20;;
53245;SDS011;39569;51.090;-1.786;2023-12-14T12:47:32;2.97;;;1.90;;
53245;SDS011;39569;51.090;-1.786;2023-12-14T12:49:59;2.00;;;1.33;;
53245;SDS011;39569;51.090;-1.786;2023-12-14T12:52:25;2.45;;;2.25;;
53245;SDS011;39569;51.090;-1.786;2023-12-14T12:54:53;3.08;;;2.88;;
53245;SDS011;39569;51.090;-1.786;2023-12-14T12:57:20;1.95;;;1.85;;
53245;SDS011;39569;51.090;-1.786;2023-12-14T12:59:47;1.90;;;1.80;;
53245;SDS011;39569;51.090;-1.786;2023-12-14T13:02:14;1.65;;;1.50;;
53245;SDS011;39569;51.090;-1.786;2023-12-14T13:04:40;2.15;;;2.05;;
53245;SDS011;39569;51.090;-1.786;2023-12-14T13:07:07;1.70;;;1.60;;
53245;SDS011;39569;51.090;-1.786;2023-12-14T13:09:34;1.73;;;1.63;;
53245;SDS011;39569;51.090;-1.786;2023-12-14T13:12:04;1.30;;;1.30;;
53245;SDS011;39569;51.090;-1.786;2023-12-14T13:14:31;2.00;;;1.90;;
53245;SDS011;39569;51.090;-1.786;2023-12-14T13:16:57;1.63;;;1.52;;
53245;SDS011;39569;51.090;-1.786;2023-12-14T13:19:24;1.58;;;1.48;;
53245;SDS011;39569;51.090;-1.786;2023-12-14T13:21:52;1.88;;;1.77;;
53245;SDS011;39569;51.090;-1.786;2023-12-14T13:24:19;1.85;;;1.75;;
53245;SDS011;39569;51.090;-1.786;2023-12-14T13:26:47;2.05;;;1.90;;
53245;SDS011;39569;51.090;-1.786;2023-12-14T13:29:15;2.92;;;2.72;;
53245;SDS011;39569;51.090;-1.786;2023-12-14T13:31:41;3.33;;;3.05;;
53245;SDS011;39569;51.090;-1.786;2023-12-14T13:34:08;2.53;;;2.42;;
53245;SDS011;39569;51.090;-1.786;2023-12-14T13:36:35;5.43;;;2.58;;
53245;SDS011;39569;51.090;-1.786;2023-12-14T13:39:02;3.10;;;2.83;;
53245;SDS011;39569;51.090;-1.786;2023-12-14T13:41:29;2.55;;;2.30;;
53245;SDS011;39569;51.090;-1.786;2023-12-14T13:43:59;2.63;;;2.42;;
53245;SDS011;39569;51.090;-1.786;2023-12-14T13:46:27;2.25;;;2.03;;
53245;SDS011;39569;51.090;-1.786;2023-12-14T13:48:53;2.80;;;2.60;;
53245;SDS011;39569;51.090;-1.786;2023-12-14T13:51:20;1.35;;;1.20;;
53245;SDS011;39569;51.090;-1.786;2023-12-14T13:53:47;3.08;;;2.60;;
53245;SDS011;39569;51.090;-1.786;2023-12-14T13:56:14;1.60;;;1.58;;
53245;SDS011;39569;51.090;-1.786;2023-12-14T13:58:40;2.60;;;2.42;;
53245;SDS011;39569;51.090;-1.786;2023-12-14T14:01:07;3.03;;;2.70;;
53245;SDS011;39569;51.090;-1.786;2023-12-14T14:03:35;3.38;;;3.08;;
53245;SDS011;39569;51.090;-1.786;2023-12-14T14:06:03;3.33;;;3.13;;
53245;SDS011;39569;51.090;-1.786;2023-12-14T14:08:31;3.33;;;3.05;;
53245;SDS011;39569;51.090;-1.786;2023-12-14T14:10:57;3.65;;;3.25;;
53245;SDS011;39569;51.090;-1.786;2023-12-14T14:13:24;3.80;;;3.30;;
53245;SDS011;39569;51.090;-1.786;2023-12-14T14:15:51;3.67;;;3.30;;
53245;SDS011;39569;51.090;-1.786;2023-12-14T14:18:18;4.57;;;3.67;;
53245;SDS011;39569;51.090;-1.786;2023-12-14T14:20:46;4.75;;;4.45;;
53245;SDS011;39569;51.090;-1.786;2023-12-14T14:23:13;6.65;;;4.65;;
53245;SDS011;39569;51.090;-1.786;2023-12-14T14:25:40;4.10;;;3.72;;
53245;SDS011;39569;51.090;-1.786;2023-12-14T14:28:07;3.88;;;3.58;;
53245;SDS011;39569;51.090;-1.786;2023-12-14T14:30:34;5.25;;;4.03;;
53245;SDS011;39569;51.090;-1.786;2023-12-14T14:33:00;5.10;;;4.65;;
53245;SDS011;39569;51.090;-1.786;2023-12-14T14:35:28;3.50;;;3.30;;
53245;SDS011;39569;51.090;-1.786;2023-12-14T14:37:56;1.00;;;1.00;;
53245;SDS011;39569;51.090;-1.786;2023-12-14T14:40:23;3.00;;;2.80;;
53245;SDS011;39569;51.090;-1.786;2023-12-14T14:42:49;3.05;;;2.95;;
53245;SDS011;39569;51.090;-1.786;2023-12-14T14:45:16;2.78;;;2.67;;